Time;durP1;ratioP1;P1;durP2;ratioP2;P2;SDS_P1;SDS_P2;PMS_P1;PMS_P2;Temp;Humidity;BMP_temperature;BMP_pressure;BME280_temperature;BME280_humidity;BME280_pressure;Samples;Min_cycle;Max_cycle;Signal;HPM_P1;HPM_P2
2021/03/02 00:00:15;;;;;;;15.95;10.43;;;1.20;99.90;;;;;;5125452;28;20201;-79
2021/03/02 00:02:43;;;;;;;17.08;11.75;;;1.20;99.90;;;;;;5124105;28;20210;-79
2021/03/02 00:05:13;;;;;;;17.02;9.30;;;1.10;99.90;;;;;;5124267;28;20646;-79
2021/03/02 00:07:40;;;;;;;15.30;9.55;;;1.20;99.90;;;;;;5127668;28;20254;-78
2021/03/02 00:10:11;;;;;;;11.82;7.15;;;1.20;99.90;;;;;;5132946;28;20176;-79
2021/03/02 00:12:41;;;;;;;24.90;11.23;;;1.20;99.90;;;;;;5128598;28;20206;-79
2021/03/02 00:15:12;;;;;;;18.65;9.63;;;1.10;99.90;;;;;;5121912;28;20191;-79
2021/03/02 00:17:46;;;;;;;13.60;9.15;;;1.00;99.90;;;;;;5122024;28;20171;-79
2021/03/02 00:20:19;;;;;;;15.60;8.75;;;1.00;99.90;;;;;;5122401;28;20181;-79
2021/03/02 00:22:58;;;;;;;12.48;9.13;;;1.10;99.90;;;;;;5126886;28;20264;-80
2021/03/02 00:25:28;;;;;;;11.68;6.63;;;1.00;99.90;;;;;;5125818;28;20215;-80
2021/03/02 00:27:57;;;;;;;18.27;8.55;;;1.10;99.90;;;;;;5122260;28;20194;-79
2021/03/02 00:30:24;;;;;;;12.38;9.95;;;1.10;99.90;;;;;;5126525;28;20202;-80
2021/03/02 00:32:54;;;;;;;14.68;9.65;;;1.10;99.90;;;;;;5121250;28;20246;-80
2021/03/02 00:35:21;;;;;;;13.63;6.63;;;1.10;99.90;;;;;;5121547;28;20167;-80
2021/03/02 00:37:48;;;;;;;12.43;9.07;;;1.10;99.90;;;;;;5142984;27;20194;-79
2021/03/02 00:40:16;;;;;;;18.20;10.13;;;1.10;99.90;;;;;;5147047;27;20208;-77
2021/03/02 00:42:50;;;;;;;16.35;9.63;;;1.10;99.90;;;;;;5146788;27;20223;-79
2021/03/02 00:45:18;;;;;;;11.05;8.75;;;1.10;99.90;;;;;;5144289;27;20656;-79
2021/03/02 00:47:49;;;;;;;17.20;10.02;;;1.00;99.90;;;;;;5141796;27;20281;-80
2021/03/02 00:50:17;;;;;;;17.90;8.93;;;0.90;99.90;;;;;;5144306;27;20257;-79
2021/03/02 00:52:45;;;;;;;16.00;8.18;;;0.90;99.90;;;;;;5141859;27;20274;-80
2021/03/02 00:55:12;;;;;;;17.02;10.80;;;1.00;99.90;;;;;;5140971;27;20189;-80
2021/03/02 00:57:39;;;;;;;22.17;10.38;;;0.90;99.90;;;;;;5141384;27;20223;-80
2021/03/02 01:00:12;;;;;;;12.32;7.65;;;0.80;99.90;;;;;;5140062;27;20182;-79
2021/03/02 01:02:39;;;;;;;13.00;9.27;;;0.80;99.90;;;;;;5141209;27;20202;-80
2021/03/02 01:05:09;;;;;;;20.35;8.23;;;0.80;99.90;;;;;;5139380;27;20182;-80
2021/03/02 01:07:39;;;;;;;14.80;8.00;;;0.70;99.90;;;;;;5138870;27;20217;-80
2021/03/02 01:10:09;;;;;;;10.98;7.82;;;0.70;99.90;;;;;;5139269;27;20229;-78
2021/03/02 01:12:38;;;;;;;25.02;12.65;;;0.60;99.90;;;;;;5139377;27;20213;-80
2021/03/02 01:15:07;;;;;;;19.80;10.20;;;0.60;99.90;;;;;;5138179;27;20217;-80
2021/03/02 01:17:36;;;;;;;15.63;8.70;;;0.60;99.90;;;;;;5140896;27;20193;-78
2021/03/02 01:20:05;;;;;;;17.90;9.50;;;0.50;99.90;;;;;;5139721;27;20186;-80
2021/03/02 01:22:32;;;;;;;19.40;10.27;;;0.60;99.90;;;;;;5140301;27;20217;-82
2021/03/02 01:24:59;;;;;;;11.07;9.05;;;0.60;99.90;;;;;;5141804;27;20205;-80
2021/03/02 01:27:27;;;;;;;18.25;9.55;;;0.70;99.90;;;;;;5151257;27;20205;-79
2021/03/02 01:29:54;;;;;;;16.20;10.38;;;0.60;99.90;;;;;;5144230;27;20178;-80
2021/03/02 01:32:22;;;;;;;16.10;8.95;;;0.70;99.90;;;;;;5140340;27;20734;-80
2021/03/02 01:34:50;;;;;;;14.57;8.88;;;0.70;99.90;;;;;;5141405;27;20220;-79
2021/03/02 01:37:17;;;;;;;16.55;9.35;;;0.70;99.90;;;;;;5142421;27;20716;-78
2021/03/02 01:39:44;;;;;;;14.35;9.90;;;0.60;99.90;;;;;;5138976;27;20182;-79
2021/03/02 01:42:11;;;;;;;16.35;9.82;;;0.60;99.90;;;;;;5136430;22;20231;-68
2021/03/02 01:44:39;;;;;;;15.13;12.00;;;0.70;99.90;;;;;;5076854;28;20688;-69
2021/03/02 01:47:09;;;;;;;18.20;8.45;;;0.70;99.90;;;;;;5055166;28;20212;-69
2021/03/02 01:49:36;;;;;;;14.45;7.82;;;0.60;99.90;;;;;;5050664;28;20212;-69
2021/03/02 01:52:05;;;;;;;13.07;9.52;;;0.60;99.90;;;;;;5050972;28;20177;-68
2021/03/02 01:54:32;;;;;;;12.90;7.55;;;0.60;99.90;;;;;;5050925;28;20215;-68
2021/03/02 01:56:59;;;;;;;17.05;9.93;;;0.50;99.90;;;;;;5050494;28;20209;-67
2021/03/02 01:59:27;;;;;;;13.43;6.75;;;0.50;99.90;;;;;;5049417;28;20557;-69
2021/03/02 02:01:57;;;;;;;19.17;9.32;;;0.50;99.90;;;;;;5050646;28;20180;-69
2021/03/02 02:04:32;;;;;;;21.48;10.70;;;0.50;99.90;;;;;;5050609;28;20185;-69
2021/03/02 02:07:04;;;;;;;15.50;9.50;;;0.60;99.90;;;;;;5050655;28;20212;-69
2021/03/02 02:09:41;;;;;;;11.10;8.90;;;0.50;99.90;;;;;;5049095;28;20540;-69
2021/03/02 02:12:17;;;;;;;11.13;7.53;;;0.50;99.90;;;;;;5049379;28;20199;-70
2021/03/02 02:14:47;;;;;;;16.45;9.48;;;0.40;99.90;;;;;;5050795;28;20184;-69
2021/03/02 02:17:19;;;;;;;15.00;9.23;;;0.30;99.90;;;;;;5050403;28;20208;-68
2021/03/02 02:19:49;;;;;;;12.88;8.45;;;0.30;99.90;;;;;;5050599;28;20242;-68
2021/03/02 02:22:34;;;;;;;14.93;8.25;;;0.30;99.90;;;;;;5049180;28;20184;-68
2021/03/02 02:25:21;;;;;;;18.52;8.77;;;0.40;99.90;;;;;;5051190;28;20259;-69
2021/03/02 02:27:53;;;;;;;19.33;11.77;;;0.40;99.90;;;;;;5051475;28;20255;-69
2021/03/02 02:30:21;;;;;;;11.80;7.82;;;0.50;99.90;;;;;;5051502;28;20231;-69
2021/03/02 02:32:51;;;;;;;19.02;9.13;;;0.40;99.90;;;;;;5051275;28;20177;-69
2021/03/02 02:35:21;;;;;;;9.93;9.00;;;0.40;99.90;;;;;;5049998;28;20192;-68
2021/03/02 02:37:50;;;;;;;13.88;8.90;;;0.40;99.90;;;;;;5050522;28;20187;-70
2021/03/02 02:40:20;;;;;;;11.38;7.00;;;0.30;99.90;;;;;;5050058;28;20583;-71
2021/03/02 02:42:51;;;;;;;10.52;5.30;;;0.40;99.90;;;;;;5049731;28;20201;-69
2021/03/02 02:45:19;;;;;;;7.57;5.65;;;0.40;99.90;;;;;;5050310;28;20187;-68
2021/03/02 02:47:49;;;;;;;14.18;8.70;;;0.30;99.90;;;;;;5053429;28;20681;-70
2021/03/02 02:50:17;;;;;;;7.47;6.65;;;0.30;99.90;;;;;;5053877;28;20184;-69
2021/03/02 02:52:47;;;;;;;9.70;8.18;;;0.40;99.90;;;;;;5053760;28;20260;-68
2021/03/02 02:55:16;;;;;;;18.95;8.30;;;0.40;99.90;;;;;;5053788;28;20185;-70
2021/03/02 02:57:47;;;;;;;16.17;9.60;;;0.40;99.90;;;;;;5053911;28;20195;-69
2021/03/02 03:00:17;;;;;;;10.75;7.55;;;0.40;99.90;;;;;;5053938;28;20518;-69
2021/03/02 03:02:50;;;;;;;17.38;7.78;;;0.30;99.90;;;;;;5054401;28;20177;-69
2021/03/02 03:05:19;;;;;;;14.05;7.22;;;0.30;99.90;;;;;;5053596;28;20180;-69
2021/03/02 03:07:49;;;;;;;11.13;8.13;;;0.30;99.90;;;;;;5070083;28;20286;-68
2021/03/02 03:10:22;;;;;;;14.50;8.15;;;0.30;99.90;;;;;;5053830;28;20271;-68
2021/03/02 03:12:51;;;;;;;13.95;7.53;;;0.30;99.90;;;;;;5053872;28;20172;-68
2021/03/02 03:15:20;;;;;;;12.80;7.00;;;0.30;99.90;;;;;;5053914;28;20177;-69
2021/03/02 03:17:51;;;;;;;13.60;7.95;;;0.20;99.90;;;;;;5053749;28;20234;-67
2021/03/02 03:20:20;;;;;;;13.10;8.10;;;0.20;99.90;;;;;;5053192;28;20173;-69
2021/03/02 03:22:49;;;;;;;22.65;9.10;;;0.30;99.90;;;;;;5052137;28;20204;-69
2021/03/02 03:25:17;;;;;;;8.32;6.40;;;0.20;99.90;;;;;;5053216;28;20196;-68
2021/03/02 03:27:50;;;;;;;13.02;10.88;;;0.20;99.90;;;;;;5053184;28;20275;-70
2021/03/02 03:30:21;;;;;;;20.15;9.93;;;0.20;99.90;;;;;;5060248;28;20191;-68
2021/03/02 03:32:54;;;;;;;11.25;8.63;;;0.20;99.90;;;;;;5072773;28;20195;-69
2021/03/02 03:35:24;;;;;;;11.23;6.72;;;0.00;99.90;;;;;;5073576;28;20176;-68
2021/03/02 03:37:51;;;;;;;15.00;8.40;;;0.00;99.90;;;;;;5072923;28;20176;-69
2021/03/02 03:40:18;;;;;;;10.63;7.70;;;0.00;99.90;;;;;;5072607;28;20530;-69
2021/03/02 03:42:45;;;;;;;21.33;7.60;;;0.00;99.90;;;;;;5072538;28;20192;-68
2021/03/02 03:45:14;;;;;;;9.52;7.47;;;0.00;99.90;;;;;;5072761;28;20188;-69
2021/03/02 03:47:42;;;;;;;14.85;8.65;;;-0.10;99.90;;;;;;5073020;28;20254;-69
2021/03/02 03:50:10;;;;;;;17.65;7.75;;;-0.10;99.90;;;;;;5072660;28;20263;-69
2021/03/02 03:52:40;;;;;;;10.65;7.00;;;-0.10;99.90;;;;;;5072753;28;20184;-69
2021/03/02 03:55:09;;;;;;;16.65;8.75;;;-0.20;99.90;;;;;;5071014;28;20277;-69
2021/03/02 03:57:38;;;;;;;15.40;9.15;;;-0.20;99.90;;;;;;5071835;28;20207;-69
2021/03/02 04:00:07;;;;;;;11.15;6.68;;;-0.30;99.90;;;;;;5072277;28;20676;-68
2021/03/02 04:02:35;;;;;;;11.68;6.00;;;-0.40;99.90;;;;;;5072089;28;20230;-69
2021/03/02 04:05:06;;;;;;;23.90;10.73;;;-0.40;99.90;;;;;;5072309;28;20177;-70
2021/03/02 04:07:35;;;;;;;16.70;9.93;;;-0.40;99.90;;;;;;5072157;28;20575;-70
2021/03/02 04:10:05;;;;;;;12.85;7.13;;;-0.50;99.90;;;;;;5072177;28;20245;-69
2021/03/02 04:12:37;;;;;;;9.60;8.23;;;-0.50;99.90;;;;;;5072593;28;20233;-68
2021/03/02 04:15:25;;;;;;;8.60;6.72;;;-0.50;99.90;;;;;;5072346;28;20172;-69
2021/03/02 04:17:55;;;;;;;12.45;8.40;;;-0.60;99.90;;;;;;5072706;28;20184;-68
2021/03/02 04:20:23;;;;;;;17.23;9.13;;;-0.60;99.90;;;;;;5071771;28;20574;-69
2021/03/02 04:22:51;;;;;;;7.10;6.35;;;-0.60;99.90;;;;;;5073003;28;20237;-69
2021/03/02 04:25:18;;;;;;;11.70;8.40;;;-0.70;99.90;;;;;;5073020;28;20183;-68
2021/03/02 04:27:46;;;;;;;9.18;5.50;;;-0.80;99.90;;;;;;5073334;28;20192;-69
2021/03/02 04:30:14;;;;;;;11.10;6.78;;;-0.80;99.90;;;;;;5071934;28;20242;-68
2021/03/02 04:32:41;;;;;;;13.13;9.30;;;-0.90;99.90;;;;;;5073366;28;20234;-67
2021/03/02 04:35:09;;;;;;;8.30;7.05;;;-0.90;99.90;;;;;;5072259;28;20180;-70
2021/03/02 04:37:38;;;;;;;9.40;5.40;;;-1.00;99.90;;;;;;5072473;28;20215;-70
2021/03/02 04:40:07;;;;;;;9.80;6.05;;;-1.00;99.90;;;;;;5073093;28;20176;-67
2021/03/02 04:42:35;;;;;;;13.18;10.45;;;-1.00;99.90;;;;;;5074968;28;20245;-68
2021/03/02 04:45:03;;;;;;;12.07;7.03;;;-1.00;99.90;;;;;;5072147;28;20185;-69
2021/03/02 04:47:30;;;;;;;11.88;7.88;;;-1.00;99.90;;;;;;5071369;28;20200;-69
2021/03/02 04:49:57;;;;;;;10.07;6.18;;;-1.00;99.90;;;;;;5071900;28;20180;-68
2021/03/02 04:52:25;;;;;;;10.85;6.82;;;-1.10;99.90;;;;;;5072538;28;20181;-67
2021/03/02 04:54:53;;;;;;;14.45;7.50;;;-1.10;99.90;;;;;;5071727;28;20188;-69
2021/03/02 04:57:20;;;;;;;16.92;9.27;;;-1.10;99.90;;;;;;5071387;28;20203;-69
2021/03/02 04:59:47;;;;;;;7.50;6.30;;;-1.20;99.90;;;;;;5071214;28;20207;-70
2021/03/02 05:02:14;;;;;;;14.55;8.30;;;-1.30;99.90;;;;;;5071037;28;20177;-68
2021/03/02 05:04:41;;;;;;;15.60;9.35;;;-1.30;99.90;;;;;;5070981;28;20194;-69
2021/03/02 05:07:08;;;;;;;11.70;8.55;;;-1.30;99.90;;;;;;5072056;28;20219;-67
2021/03/02 05:09:35;;;;;;;10.65;8.05;;;-1.30;99.90;;;;;;5074616;28;20172;-69
2021/03/02 05:12:04;;;;;;;9.32;8.07;;;-1.40;99.90;;;;;;5076362;28;20191;-69
2021/03/02 05:14:31;;;;;;;6.47;5.63;;;-1.40;99.90;;;;;;5076901;28;20173;-69
2021/03/02 05:16:58;;;;;;;10.02;6.70;;;-1.40;99.90;;;;;;5073802;28;20219;-69
2021/03/02 05:19:29;;;;;;;27.58;7.72;;;-1.40;99.90;;;;;;5070763;28;20291;-69
2021/03/02 05:21:57;;;;;;;8.93;6.65;;;-1.40;99.90;;;;;;5071190;28;20621;-69
2021/03/02 05:24:24;;;;;;;14.02;7.90;;;-1.40;99.90;;;;;;5069468;28;20198;-68
2021/03/02 05:26:51;;;;;;;10.38;5.43;;;-1.50;99.90;;;;;;5070583;28;20211;-69
2021/03/02 05:29:19;;;;;;;8.57;7.68;;;-1.50;99.90;;;;;;5070682;28;20188;-68
2021/03/02 05:31:46;;;;;;;6.47;4.95;;;-1.50;99.90;;;;;;5070699;28;20660;-68
2021/03/02 05:34:14;;;;;;;11.80;6.43;;;-1.40;99.90;;;;;;5070846;28;20180;-70
2021/03/02 05:36:41;;;;;;;12.02;7.30;;;-1.50;99.90;;;;;;5070649;28;20210;-69
2021/03/02 05:39:09;;;;;;;11.48;5.57;;;-1.50;99.90;;;;;;5070532;28;20188;-68
2021/03/02 05:41:36;;;;;;;10.40;7.78;;;-1.50;99.90;;;;;;5070449;28;20187;-70
2021/03/02 05:44:04;;;;;;;16.90;5.03;;;-1.60;99.90;;;;;;5071339;28;20176;-69
2021/03/02 05:46:34;;;;;;;9.13;7.32;;;-1.60;99.90;;;;;;5070767;28;20212;-70
2021/03/02 05:49:03;;;;;;;7.20;6.57;;;-1.60;99.90;;;;;;5070358;28;20177;-68
2021/03/02 05:51:30;;;;;;;8.07;3.72;;;-1.60;99.90;;;;;;5070104;28;20188;-72
2021/03/02 05:53:59;;;;;;;9.82;6.20;;;-1.50;99.90;;;;;;5070600;28;20179;-69
2021/03/02 05:56:26;;;;;;;13.52;7.15;;;-1.50;99.90;;;;;;5065359;28;20208;-71
2021/03/02 05:58:53;;;;;;;11.77;6.07;;;-1.50;99.90;;;;;;5062955;28;20173;-70
2021/03/02 06:01:20;;;;;;;12.23;7.28;;;-1.50;99.90;;;;;;5050433;28;20189;-69
2021/03/02 06:03:49;;;;;;;6.57;5.20;;;-1.50;99.90;;;;;;5050368;28;20185;-68
2021/03/02 06:06:16;;;;;;;20.63;6.55;;;-1.50;99.90;;;;;;5050386;28;20270;-67
2021/03/02 06:08:45;;;;;;;8.55;5.10;;;-1.50;99.90;;;;;;5051243;28;20564;-69
2021/03/02 06:11:26;;;;;;;13.07;5.82;;;-1.50;99.90;;;;;;5050735;28;20185;-70
2021/03/02 06:13:53;;;;;;;19.30;6.35;;;-1.50;99.90;;;;;;5050513;28;20197;-69
2021/03/02 06:16:20;;;;;;;13.98;7.15;;;-1.50;99.90;;;;;;5050426;28;20442;-71
2021/03/02 06:18:51;;;;;;;10.45;6.55;;;-1.40;99.90;;;;;;5052898;28;20205;-71
2021/03/02 06:21:19;;;;;;;17.15;8.07;;;-1.40;99.90;;;;;;5053292;28;20591;-71
2021/03/02 06:23:48;;;;;;;13.18;6.35;;;-1.40;99.90;;;;;;5055044;28;20202;-70
2021/03/02 06:26:24;;;;;;;10.38;6.70;;;-1.30;99.90;;;;;;5054764;28;20209;-69
2021/03/02 06:28:53;;;;;;;17.88;5.82;;;-1.20;99.90;;;;;;5054849;28;20180;-71
2021/03/02 06:31:36;;;;;;;9.98;6.70;;;-1.20;99.90;;;;;;5062745;28;20195;-68
2021/03/02 06:34:09;;;;;;;14.73;7.15;;;-1.10;99.90;;;;;;5075576;28;20176;-70
2021/03/02 06:36:38;;;;;;;19.02;8.15;;;-1.10;99.90;;;;;;5075493;28;20269;-71
2021/03/02 06:39:26;;;;;;;11.80;8.80;;;-1.10;99.90;;;;;;5075427;28;20543;-70
2021/03/02 06:42:09;;;;;;;18.58;7.97;;;-1.00;99.90;;;;;;5074723;28;20215;-70
2021/03/02 06:44:37;;;;;;;13.55;6.60;;;-1.00;99.90;;;;;;5074747;28;20637;-69
2021/03/02 06:47:30;;;;;;;15.55;9.27;;;-0.90;99.90;;;;;;5074498;28;20211;-70
2021/03/02 06:49:59;;;;;;;8.18;5.25;;;-0.80;99.90;;;;;;5074818;28;20184;-71
2021/03/02 06:52:33;;;;;;;19.20;11.70;;;-0.80;99.90;;;;;;5073869;28;20218;-70
2021/03/02 06:55:01;;;;;;;20.55;7.95;;;-0.80;99.90;;;;;;5075583;28;20254;-71
2021/03/02 06:57:30;;;;;;;18.70;7.63;;;-0.80;99.90;;;;;;5075310;28;20204;-71
2021/03/02 07:00:00;;;;;;;21.90;9.27;;;-0.70;99.90;;;;;;5075145;28;20172;-70
2021/03/02 07:02:35;;;;;;;13.07;6.78;;;-0.70;99.90;;;;;;5074451;28;20589;-69
2021/03/02 07:05:09;;;;;;;16.35;10.05;;;-0.70;99.90;;;;;;5074582;28;20267;-71
2021/03/02 07:07:37;;;;;;;32.38;10.20;;;-0.70;99.90;;;;;;5074148;28;20208;-69
2021/03/02 07:10:05;;;;;;;18.85;10.23;;;-0.50;99.90;;;;;;5074648;28;20191;-69
2021/03/02 07:12:36;;;;;;;19.10;11.43;;;-0.50;99.90;;;;;;5074144;28;20176;-70
2021/03/02 07:15:06;;;;;;;14.48;8.70;;;-0.50;99.90;;;;;;5063081;28;20196;-70
2021/03/02 07:17:38;;;;;;;18.27;11.10;;;-0.40;99.90;;;;;;5066754;28;20571;-69
2021/03/02 07:20:09;;;;;;;13.43;9.52;;;-0.20;99.90;;;;;;5074728;28;20176;-68
2021/03/02 07:22:38;;;;;;;15.45;10.45;;;-0.10;99.90;;;;;;5074859;28;20597;-69
2021/03/02 07:25:09;;;;;;;14.88;8.40;;;0.20;99.90;;;;;;5074273;28;20640;-68
2021/03/02 07:27:41;;;;;;;19.48;10.13;;;0.30;99.90;;;;;;5054648;28;20212;-67
2021/03/02 07:30:11;;;;;;;22.50;15.40;;;0.50;99.90;;;;;;5054578;28;20167;-67
2021/03/02 07:32:39;;;;;;;23.27;11.38;;;0.50;99.90;;;;;;5052421;28;20231;-67
2021/03/02 07:35:11;;;;;;;21.88;11.32;;;0.50;99.90;;;;;;5054570;28;20184;-67
2021/03/02 07:37:38;;;;;;;34.03;16.02;;;0.60;99.90;;;;;;5054389;28;20208;-68
2021/03/02 07:40:08;;;;;;;30.15;14.52;;;0.60;99.90;;;;;;5054046;28;20216;-70
2021/03/02 07:45:30;;;;;;;21.50;11.13;;;0.90;99.90;;;;;;5409316;22;20268;-71
2021/03/02 07:48:00;;;;;;;26.63;13.85;;;0.90;99.90;;;;;;5076247;28;20254;-72
2021/03/02 07:50:34;;;;;;;28.58;15.93;;;0.80;99.90;;;;;;5073849;28;20230;-73
2021/03/02 07:53:22;;;;;;;25.33;13.38;;;0.90;99.90;;;;;;5075968;28;20168;-71
2021/03/02 07:56:26;;;;;;;24.33;12.13;;;1.00;99.90;;;;;;5074974;28;20200;-72
2021/03/02 07:59:19;;;;;;;19.23;15.07;;;1.20;99.90;;;;;;5074525;28;20186;-73
2021/03/02 08:02:15;;;;;;;34.53;11.63;;;1.40;99.90;;;;;;5075026;28;20168;-72
2021/03/02 08:04:49;;;;;;;11.45;9.95;;;1.40;99.90;;;;;;5040136;28;20226;-74
2021/03/02 08:07:30;;;;;;;21.65;10.38;;;1.20;99.90;;;;;;5074851;28;20775;-73
2021/03/02 08:10:35;;;;;;;14.10;5.60;;;1.30;99.90;;;;;;5075842;28;20173;-74
2021/03/02 08:13:31;;;;;;;17.63;10.50;;;1.40;99.90;;;;;;5075064;28;20267;-73
2021/03/02 08:16:00;;;;;;;17.92;10.90;;;1.40;99.90;;;;;;5074630;28;20567;-73
2021/03/02 08:18:30;;;;;;;17.55;10.55;;;1.50;99.90;;;;;;5074628;28;20160;-73
2021/03/02 08:21:13;;;;;;;21.52;10.02;;;1.50;99.90;;;;;;5074784;28;20176;-73
2021/03/02 08:23:50;;;;;;;27.48;12.02;;;1.50;99.90;;;;;;5074856;28;20439;-73
2021/03/02 08:26:23;;;;;;;22.83;10.65;;;1.70;99.90;;;;;;5073103;28;20648;-73
2021/03/02 08:29:11;;;;;;;15.48;10.40;;;1.90;99.90;;;;;;5074385;28;20172;-73
2021/03/02 08:31:41;;;;;;;18.30;10.25;;;2.00;99.90;;;;;;5072992;28;20567;-73
2021/03/02 08:34:12;;;;;;;31.60;15.43;;;2.20;99.90;;;;;;5073011;28;20188;-73
2021/03/02 08:36:41;;;;;;;24.23;12.38;;;2.20;99.90;;;;;;5072717;28;20235;-71
2021/03/02 08:39:12;;;;;;;28.65;13.63;;;2.20;99.90;;;;;;5074288;28;20173;-72
2021/03/02 08:41:43;;;;;;;15.55;9.43;;;2.10;99.90;;;;;;5074146;28;20189;-71
2021/03/02 08:44:19;;;;;;;22.55;11.32;;;2.10;99.90;;;;;;5073062;28;20250;-71
2021/03/02 08:46:50;;;;;;;23.20;10.70;;;2.10;99.90;;;;;;5074253;28;20568;-72
2021/03/02 08:49:20;;;;;;;24.50;10.05;;;2.20;99.90;;;;;;5072621;28;20595;-73
2021/03/02 08:51:49;;;;;;;15.30;12.15;;;2.30;99.90;;;;;;5073759;28;20257;-73
2021/03/02 08:54:17;;;;;;;17.50;9.95;;;2.40;99.90;;;;;;5072286;28;20261;-69
2021/03/02 08:56:44;;;;;;;21.27;11.73;;;2.60;99.90;;;;;;5072820;28;20206;-70
2021/03/02 08:59:14;;;;;;;20.60;11.60;;;2.50;99.90;;;;;;5073130;28;20184;-71
2021/03/02 09:01:42;;;;;;;22.42;11.85;;;2.60;99.90;;;;;;5071452;28;20188;-70
2021/03/02 09:04:15;;;;;;;35.85;12.73;;;2.60;99.90;;;;;;5073013;28;20250;-75
2021/03/02 09:06:43;;;;;;;25.40;11.65;;;2.70;99.90;;;;;;5072488;28;20218;-71
2021/03/02 09:09:12;;;;;;;21.88;12.05;;;2.80;99.90;;;;;;5073111;28;20183;-72
2021/03/02 09:11:42;;;;;;;28.27;14.88;;;2.90;99.90;;;;;;5072977;28;20192;-73
2021/03/02 09:14:13;;;;;;;16.85;10.63;;;3.10;99.90;;;;;;5073055;28;20540;-72
2021/03/02 09:16:45;;;;;;;27.60;14.90;;;3.30;99.90;;;;;;5072172;28;20285;-73
2021/03/02 09:19:18;;;;;;;19.52;13.38;;;3.50;99.90;;;;;;5072552;28;20561;-74
2021/03/02 09:21:48;;;;;;;24.00;11.43;;;3.70;99.90;;;;;;5072557;28;20660;-71
2021/03/02 09:24:30;;;;;;;22.80;12.80;;;3.80;99.90;;;;;;5073339;28;20686;-71
2021/03/02 09:27:00;;;;;;;25.10;15.40;;;3.90;99.90;;;;;;5073056;28;20243;-72
2021/03/02 09:29:30;;;;;;;24.75;11.57;;;4.00;99.90;;;;;;5072985;28;20175;-72
2021/03/02 09:31:58;;;;;;;22.48;15.75;;;4.10;99.90;;;;;;5072024;28;20182;-71
2021/03/02 09:34:36;;;;;;;16.48;10.38;;;4.10;99.90;;;;;;5072127;28;20215;-73
2021/03/02 09:37:06;;;;;;;20.33;12.65;;;4.10;99.90;;;;;;5072438;28;20200;-72
2021/03/02 09:39:34;;;;;;;30.10;11.70;;;4.20;99.90;;;;;;5072864;28;20544;-72
2021/03/02 09:42:13;;;;;;;27.00;15.10;;;4.30;99.90;;;;;;5072392;28;20208;-71
2021/03/02 09:44:47;;;;;;;22.20;13.45;;;4.50;99.90;;;;;;5070996;28;20221;-72
2021/03/02 09:47:24;;;;;;;28.65;15.85;;;4.60;99.90;;;;;;5071410;28;20207;-69
2021/03/02 09:49:57;;;;;;;25.25;16.92;;;4.60;99.90;;;;;;5072289;28;20187;-71
2021/03/02 09:52:26;;;;;;;24.33;13.50;;;4.60;99.90;;;;;;5071805;28;20195;-71
2021/03/02 09:55:20;;;;;;;35.05;16.95;;;4.70;99.90;;;;;;5070533;28;20204;-70
2021/03/02 09:57:56;;;;;;;24.25;13.15;;;5.00;99.90;;;;;;5070806;28;20274;-72
2021/03/02 10:00:27;;;;;;;39.38;15.93;;;5.10;99.90;;;;;;5050553;28;20191;-71
2021/03/02 10:02:56;;;;;;;30.42;16.38;;;5.00;99.90;;;;;;5052081;28;20173;-70
2021/03/02 10:05:35;;;;;;;26.50;14.23;;;5.00;99.90;;;;;;5051704;28;20287;-72
2021/03/02 10:08:36;;;;;;;23.27;12.13;;;4.80;99.90;;;;;;5049672;28;20219;-69
2021/03/02 10:11:19;;;;;;;25.25;14.35;;;4.90;99.90;;;;;;5049720;28;20204;-72
2021/03/02 10:13:53;;;;;;;25.67;14.27;;;5.10;99.90;;;;;;5051611;28;20227;-73
2021/03/02 10:16:28;;;;;;;23.70;13.07;;;5.20;99.90;;;;;;5051701;28;20208;-72
2021/03/02 10:18:58;;;;;;;28.35;12.80;;;5.40;99.90;;;;;;5051742;28;20184;-74
2021/03/02 10:21:27;;;;;;;24.42;13.10;;;5.60;99.90;;;;;;5052031;28;20523;-74
2021/03/02 10:23:56;;;;;;;22.65;10.82;;;5.50;99.90;;;;;;5052232;28;20184;-74
2021/03/02 10:26:26;;;;;;;16.95;12.23;;;5.60;99.90;;;;;;5052902;28;20215;-73
2021/03/02 10:28:55;;;;;;;26.40;14.02;;;5.80;99.90;;;;;;5052002;28;20247;-72
2021/03/02 10:31:22;;;;;;;25.85;14.40;;;6.00;99.90;;;;;;5054255;28;20177;-74
2021/03/02 10:33:50;;;;;;;20.67;11.85;;;6.10;99.90;;;;;;5061252;28;20165;-75
2021/03/02 10:36:23;;;;;;;18.25;12.95;;;6.10;99.90;;;;;;5062388;28;20227;-73
2021/03/02 10:38:51;;;;;;;22.90;13.73;;;6.00;99.90;;;;;;5054796;28;20203;-74
2021/03/02 10:41:19;;;;;;;22.90;12.40;;;6.10;99.90;;;;;;5058797;28;20234;-70
2021/03/02 10:43:48;;;;;;;17.50;11.23;;;6.10;99.90;;;;;;5059341;28;20188;-71
2021/03/02 10:46:17;;;;;;;23.88;13.50;;;6.10;99.90;;;;;;5057175;28;20216;-72
2021/03/02 10:48:45;;;;;;;20.58;12.27;;;6.20;99.90;;;;;;5062351;28;20215;-75
2021/03/02 10:51:13;;;;;;;22.92;12.95;;;6.40;99.90;;;;;;5068199;28;20192;-71
2021/03/02 10:53:41;;;;;;;21.52;15.48;;;6.60;99.90;;;;;;5072075;28;20176;-71
2021/03/02 10:56:08;;;;;;;15.82;10.43;;;6.90;99.90;;;;;;5072468;28;20200;-72
2021/03/02 10:58:36;;;;;;;25.15;14.35;;;7.00;99.90;;;;;;5073669;28;20168;-73
2021/03/02 11:01:04;;;;;;;18.35;11.63;;;7.00;99.90;;;;;;5073242;28;20707;-71
2021/03/02 11:03:32;;;;;;;20.83;12.95;;;7.20;99.90;;;;;;5074488;28;20222;-70
2021/03/02 11:06:00;;;;;;;14.48;10.70;;;7.40;99.90;;;;;;5080253;28;20208;-72
2021/03/02 11:08:27;;;;;;;18.27;13.80;;;7.60;99.90;;;;;;5091243;28;20226;-70
2021/03/02 11:10:55;;;;;;;17.38;12.63;;;7.70;99.90;;;;;;5086720;28;20180;-72
2021/03/02 11:13:22;;;;;;;21.33;12.27;;;7.80;99.90;;;;;;5090064;28;20667;-71
2021/03/02 11:15:49;;;;;;;25.13;12.15;;;7.90;99.90;;;;;;5083579;28;20215;-70
2021/03/02 11:18:16;;;;;;;26.23;12.65;;;8.10;99.90;;;;;;5083790;28;20251;-70
2021/03/02 11:20:45;;;;;;;18.80;12.57;;;8.40;99.90;;;;;;5075253;28;20659;-71
2021/03/02 11:23:13;;;;;;;22.30;13.50;;;8.40;99.90;;;;;;5074640;28;20668;-69
2021/03/02 11:25:41;;;;;;;24.92;13.60;;;8.40;99.90;;;;;;5074311;28;20739;-72
2021/03/02 11:28:09;;;;;;;19.50;12.82;;;8.50;99.90;;;;;;5074780;28;20196;-70
2021/03/02 11:30:37;;;;;;;18.08;11.85;;;8.60;99.90;;;;;;5073924;28;20195;-70
2021/03/02 11:33:05;;;;;;;28.85;13.48;;;8.80;99.90;;;;;;5076145;28;20660;-70
2021/03/02 11:35:33;;;;;;;25.55;13.98;;;9.10;99.90;;;;;;5082945;28;20274;-70
2021/03/02 11:38:01;;;;;;;27.50;14.05;;;9.20;99.90;;;;;;5089049;28;20168;-71
2021/03/02 11:40:29;;;;;;;27.13;14.27;;;9.30;99.90;;;;;;5087609;28;20198;-70
2021/03/02 11:42:57;;;;;;;26.33;14.48;;;9.10;99.90;;;;;;5085089;28;20193;-70
2021/03/02 11:45:25;;;;;;;32.55;16.50;;;9.00;99.90;;;;;;5087287;28;20211;-71
2021/03/02 11:47:53;;;;;;;33.63;16.40;;;9.00;99.90;;;;;;5083942;28;20204;-73
2021/03/02 11:50:21;;;;;;;20.52;13.68;;;9.00;99.90;;;;;;5077369;28;20202;-71
2021/03/02 11:52:50;;;;;;;31.83;14.25;;;9.10;99.90;;;;;;5077647;28;20193;-71
2021/03/02 11:55:19;;;;;;;31.02;17.02;;;9.40;99.90;;;;;;5081977;28;20203;-72
2021/03/02 11:57:47;;;;;;;26.85;15.80;;;9.40;99.90;;;;;;5087909;28;20185;-72
2021/03/02 12:00:17;;;;;;;26.15;14.07;;;9.50;99.90;;;;;;5075691;28;20245;-71
2021/03/02 12:02:45;;;;;;;30.60;16.80;;;9.60;99.90;;;;;;5074635;28;20177;-72
2021/03/02 12:05:14;;;;;;;29.00;17.20;;;9.70;99.90;;;;;;5076543;28;20179;-73
2021/03/02 12:07:41;;;;;;;30.25;16.08;;;9.60;99.90;;;;;;5074646;28;20203;-72
2021/03/02 12:10:11;;;;;;;31.55;15.65;;;9.60;99.90;;;;;;5074627;28;20192;-73
2021/03/02 12:12:39;;;;;;;22.70;12.55;;;9.80;99.90;;;;;;5074483;28;20208;-73
2021/03/02 12:15:08;;;;;;;28.87;14.23;;;10.00;99.90;;;;;;5075547;28;20188;-73
2021/03/02 12:17:35;;;;;;;29.73;15.03;;;10.10;99.90;;;;;;5073520;28;20436;-73
2021/03/02 12:20:03;;;;;;;26.63;14.57;;;10.00;99.90;;;;;;5074188;28;20397;-73
2021/03/02 12:22:30;;;;;;;30.90;18.43;;;10.10;99.90;;;;;;5073185;28;20188;-73
2021/03/02 12:24:58;;;;;;;26.05;13.57;;;10.10;99.90;;;;;;5074502;28;20927;-73
2021/03/02 12:27:25;;;;;;;23.00;15.43;;;10.00;99.90;;;;;;5073879;28;20208;-73
2021/03/02 12:29:53;;;;;;;27.80;14.43;;;9.90;99.90;;;;;;5073965;28;20180;-72
2021/03/02 12:32:20;;;;;;;28.97;14.40;;;10.00;99.90;;;;;;5073946;28;20393;-72
2021/03/02 12:34:48;;;;;;;24.67;13.77;;;10.10;99.90;;;;;;5074483;28;20828;-72
2021/03/02 12:37:16;;;;;;;30.67;14.50;;;10.30;99.90;;;;;;5076223;28;20500;-73
2021/03/02 12:39:43;;;;;;;30.87;14.87;;;10.50;99.90;;;;;;5076896;28;20418;-73
2021/03/02 12:42:11;;;;;;;28.60;14.97;;;10.60;99.90;;;;;;5076554;28;20407;-73
2021/03/02 12:44:38;;;;;;;23.30;14.73;;;10.60;99.90;;;;;;5074491;28;20852;-73
2021/03/02 12:47:06;;;;;;;27.53;14.93;;;10.70;99.90;;;;;;5073170;28;20467;-74
2021/03/02 12:49:34;;;;;;;26.60;14.60;;;10.70;99.90;;;;;;5073942;28;20422;-72
2021/03/02 12:52:03;;;;;;;24.83;13.33;;;10.90;99.90;;;;;;5073877;28;20397;-72
2021/03/02 12:54:31;;;;;;;22.93;11.13;;;11.10;99.90;;;;;;5073669;28;20422;-74
2021/03/02 12:56:58;;;;;;;21.03;13.70;;;11.30;99.90;;;;;;5071643;28;20443;-73
2021/03/02 12:59:25;;;;;;;18.57;12.77;;;11.40;99.90;;;;;;5077741;28;20423;-73